createdAt,value
2019-04-06T00:04:59.164Z,18.93
2019-04-06T00:07:47.275Z,19.63
2019-04-06T00:10:35.314Z,18.70
2019-04-06T00:13:23.407Z,19.23
2019-04-06T00:16:11.582Z,18.93
2019-04-06T00:18:59.620Z,18.87
2019-04-06T00:21:47.657Z,19.93
2019-04-06T00:24:35.696Z,18.80
2019-04-06T00:27:24.731Z,19.97
2019-04-06T00:33:11.473Z,19.50
2019-04-06T00:35:59.509Z,20.33
2019-04-06T00:38:47.889Z,18.40
2019-04-06T00:41:35.968Z,18.47
2019-04-06T00:44:24.006Z,18.87
2019-04-06T00:47:12.104Z,19.83
2019-04-06T00:50:00.149Z,20.63
2019-04-06T00:52:48.426Z,20.47
2019-04-06T00:55:36.869Z,20.27
2019-04-06T00:58:24.982Z,19.40
2019-04-06T01:01:13.417Z,20.60
2019-04-06T01:04:01.450Z,20.00
2019-04-06T01:06:42.757Z,20.33
2019-04-06T01:09:23.973Z,20.40
2019-04-06T01:12:04.974Z,19.53
2019-04-06T01:14:45.646Z,21.37
2019-04-06T01:17:26.235Z,21.27
2019-04-06T01:20:07.085Z,20.70
2019-04-06T01:22:48.234Z,22.60
2019-04-06T01:25:28.502Z,20.23
2019-04-06T01:28:09.153Z,19.03
2019-04-06T01:30:49.970Z,21.13
2019-04-06T01:33:31.028Z,18.23
2019-04-06T01:36:11.886Z,21.47
2019-04-06T01:38:52.881Z,19.93
2019-04-06T01:41:33.610Z,18.80
2019-04-06T01:44:14.612Z,21.03
2019-04-06T01:46:55.566Z,20.23
2019-04-06T01:49:36.846Z,19.43
2019-04-06T01:52:18.062Z,20.17
2019-04-06T01:54:59.198Z,21.33
2019-04-06T01:57:40.481Z,22.20
2019-04-06T02:00:21.348Z,20.97
2019-04-06T02:03:01.910Z,20.63
2019-04-06T02:05:42.575Z,21.57
2019-04-06T02:08:23.270Z,20.30
2019-04-06T02:11:04.584Z,21.57
2019-04-06T02:13:45.817Z,22.67
2019-04-06T02:16:26.586Z,22.70
2019-04-06T02:19:07.227Z,21.10
2019-04-06T02:21:48.477Z,21.33
2019-04-06T02:24:28.894Z,20.27
2019-04-06T02:27:09.751Z,21.93
2019-04-06T02:33:17.224Z,20.73
2019-04-06T02:36:17.698Z,22.70
2019-04-06T02:39:17.725Z,21.33
2019-04-06T02:42:06.807Z,21.37
2019-04-06T02:44:47.305Z,21.40
2019-04-06T02:47:28.137Z,22.70
2019-04-06T02:50:08.843Z,21.33
2019-04-06T02:52:49.531Z,23.97
2019-04-06T02:55:30.730Z,20.40
2019-04-06T02:58:11.508Z,22.77
2019-04-06T03:00:52.406Z,21.57
2019-04-06T03:03:32.790Z,22.33
2019-04-06T03:06:13.679Z,22.33
2019-04-06T03:08:54.405Z,22.53
2019-04-06T03:11:35.003Z,21.50
2019-04-06T03:14:15.791Z,22.47
2019-04-06T03:16:56.350Z,21.03
2019-04-06T03:19:37.204Z,21.67
2019-04-06T03:22:18.319Z,21.67
2019-04-06T03:24:58.852Z,20.40
2019-04-06T03:27:39.318Z,20.00
2019-04-06T03:30:20.265Z,21.03
2019-04-06T03:33:01.055Z,20.47
2019-04-06T03:35:46.977Z,21.60
2019-04-06T03:38:24.215Z,20.90
2019-04-06T03:41:04.631Z,20.57
2019-04-06T03:43:45.378Z,21.33
2019-04-06T03:46:26.069Z,21.60
2019-04-06T03:49:07.117Z,21.83
2019-04-06T03:51:48.146Z,20.73
2019-04-06T03:54:29.191Z,23.80
2019-04-06T03:57:15.874Z,21.37
2019-04-06T03:59:52.987Z,22.10
2019-04-06T04:02:33.571Z,21.20
2019-04-06T04:05:14.332Z,23.07
2019-04-06T04:07:55.587Z,23.03
2019-04-06T04:10:36.417Z,21.93
2019-04-06T04:13:16.958Z,21.67
2019-04-06T04:15:57.967Z,22.30
2019-04-06T04:18:37.077Z,20.63
2019-04-06T04:21:25.190Z,20.43
2019-04-06T04:24:13.242Z,21.53
2019-04-06T04:27:01.309Z,21.60
2019-04-06T04:29:49.346Z,20.30
2019-04-06T04:32:37.383Z,20.20
2019-04-06T04:35:25.485Z,20.43
2019-04-06T04:38:13.520Z,19.33
2019-04-06T04:44:10.654Z,20.23
2019-04-06T04:46:58.690Z,19.93
2019-04-06T04:49:46.729Z,20.00
2019-04-06T04:52:34.833Z,21.57
2019-04-06T04:55:22.877Z,19.60
2019-04-06T04:58:10.994Z,20.73
2019-04-06T05:00:59.046Z,21.33
2019-04-06T05:03:47.092Z,20.53
2019-04-06T05:06:27.477Z,19.30
2019-04-06T05:09:08.260Z,18.40
2019-04-06T05:11:49.118Z,18.63
2019-04-06T05:14:29.756Z,17.77
2019-04-06T05:17:10.660Z,18.00
2019-04-06T05:19:51.702Z,17.07
2019-04-06T05:22:32.325Z,18.93
2019-04-06T05:25:13.266Z,17.47
2019-04-06T05:27:53.614Z,19.10
2019-04-06T05:30:34.265Z,18.63
2019-04-06T05:33:15.026Z,18.83
2019-04-06T05:35:56.039Z,18.23
2019-04-06T05:38:37.178Z,18.80
2019-04-06T05:41:17.566Z,18.10
2019-04-06T05:43:58.346Z,18.07
2019-04-06T05:46:38.843Z,18.90
2019-04-06T05:49:19.759Z,17.00
2019-04-06T05:52:00.470Z,18.90
2019-04-06T05:54:41.608Z,17.67
2019-04-06T05:57:22.662Z,18.60
2019-04-06T06:00:04.660Z,18.60
2019-04-06T06:02:45.378Z,18.70
2019-04-06T06:05:26.276Z,19.23
2019-04-06T06:08:05.402Z,19.30
2019-04-06T06:10:53.621Z,19.10
2019-04-06T06:13:41.652Z,19.40
2019-04-06T06:16:29.693Z,18.47
2019-04-06T06:19:17.740Z,19.63
2019-04-06T06:22:06.012Z,19.33
2019-04-06T06:24:54.308Z,19.30
2019-04-06T06:27:42.334Z,17.37
2019-04-06T06:30:30.376Z,19.03
2019-04-06T06:33:18.714Z,17.67
2019-04-06T06:36:06.853Z,19.13
2019-04-06T06:38:54.883Z,18.00
2019-04-06T06:41:42.916Z,18.27
2019-04-06T06:44:31.010Z,18.80
2019-04-06T06:47:19.268Z,18.40
2019-04-06T06:50:07.724Z,18.93
2019-04-06T06:52:57.198Z,18.93
2019-04-06T06:55:45.473Z,19.67
2019-04-06T06:58:33.484Z,18.13
2019-04-06T07:01:21.534Z,18.17
2019-04-06T07:04:09.806Z,17.97
2019-04-06T07:06:50.483Z,17.43
2019-04-06T07:09:29.663Z,19.20
2019-04-06T07:12:17.701Z,18.83
2019-04-06T07:15:06.218Z,21.67
2019-04-06T07:17:54.245Z,19.20
2019-04-06T07:20:42.409Z,19.40
2019-04-06T07:23:30.433Z,19.00
2019-04-06T07:26:18.555Z,20.60
2019-04-06T07:29:06.648Z,19.87
2019-04-06T07:31:54.703Z,20.30
2019-04-06T07:34:42.741Z,19.40
2019-04-06T07:37:31.108Z,19.83
2019-04-06T07:40:19.152Z,20.10
2019-04-06T07:43:07.522Z,20.43
2019-04-06T07:45:57.477Z,20.40
2019-04-06T07:48:47.213Z,19.60
2019-04-06T07:51:35.257Z,20.85
2019-04-06T07:57:32.416Z,19.73
2019-04-06T08:00:20.642Z,19.98
2019-04-06T08:03:08.646Z,19.02
2019-04-06T08:05:49.111Z,18.70
2019-04-06T08:08:30.436Z,17.80
2019-04-06T08:11:11.304Z,21.25
2019-04-06T08:13:51.690Z,18.57
2019-04-06T08:16:32.661Z,19.50
2019-04-06T08:19:13.547Z,19.73
2019-04-06T08:21:54.232Z,20.10
2019-04-06T08:24:34.905Z,19.55
2019-04-06T08:27:15.684Z,20.20
2019-04-06T08:29:56.099Z,19.87
2019-04-06T08:32:36.844Z,20.02
2019-04-06T08:35:25.640Z,18.48
2019-04-06T08:38:00.431Z,18.75
2019-04-06T08:40:41.360Z,17.87
2019-04-06T08:43:21.766Z,19.50
2019-04-06T08:46:02.530Z,18.48
2019-04-06T08:48:43.115Z,17.75
2019-04-06T08:51:23.873Z,19.37
2019-04-06T08:54:04.406Z,18.95
2019-04-06T08:56:44.901Z,17.85
2019-04-06T08:59:25.810Z,18.77
2019-04-06T09:02:06.521Z,17.17
2019-04-06T09:04:47.404Z,17.50
2019-04-06T09:07:28.234Z,18.20
2019-04-06T09:10:08.784Z,17.75
2019-04-06T09:12:49.604Z,17.52
2019-04-06T09:15:30.036Z,17.23
2019-04-06T09:18:10.684Z,17.25
2019-04-06T09:20:51.257Z,16.02
2019-04-06T09:23:32.196Z,16.75
2019-04-06T09:26:12.514Z,15.38
2019-04-06T09:28:53.313Z,15.83
2019-04-06T09:31:34.262Z,16.02
2019-04-06T09:34:15.006Z,15.93
2019-04-06T09:36:55.542Z,14.90
2019-04-06T09:39:36.258Z,16.05
2019-04-06T09:42:17.042Z,15.75
2019-04-06T09:45:16.987Z,15.55
2019-04-06T09:48:08.390Z,12.55
2019-04-06T09:51:13.701Z,12.40
2019-04-06T09:54:13.451Z,11.48
2019-04-06T09:57:13.705Z,12.18
2019-04-06T10:00:13.139Z,13.32
2019-04-06T10:03:12.594Z,10.25
2019-04-06T10:06:12.026Z,12.40
2019-04-06T10:09:01.821Z,11.43
2019-04-06T10:12:03.525Z,11.25
2019-04-06T10:15:03.272Z,11.50
2019-04-06T10:18:02.885Z,10.25
2019-04-06T10:20:53.405Z,9.70
2019-04-06T10:23:53.518Z,8.98
2019-04-06T10:26:42.286Z,9.15
2019-04-06T10:29:48.899Z,9.60
2019-04-06T10:32:44.805Z,9.25
2019-04-06T10:35:45.017Z,9.33
2019-04-06T10:38:50.848Z,9.20
2019-04-06T10:41:51.962Z,9.60
2019-04-06T10:44:51.546Z,9.05
2019-04-06T10:47:57.268Z,10.15
2019-04-06T10:51:03.224Z,9.90
2019-04-06T10:53:55.588Z,9.70
2019-04-06T10:56:45.424Z,10.13
2019-04-06T10:59:45.313Z,8.80
2019-04-06T11:02:45.540Z,9.58
2019-04-06T11:05:48.682Z,9.48
2019-04-06T11:08:48.608Z,9.75
2019-04-06T11:11:48.272Z,10.32
2019-04-06T11:14:47.750Z,8.70
2019-04-06T11:17:47.266Z,9.18
2019-04-06T11:20:37.806Z,8.95
2019-04-06T11:23:37.991Z,10.68
2019-04-06T11:26:37.502Z,7.75
2019-04-06T11:29:36.937Z,8.15
2019-04-06T11:32:33.592Z,7.65
2019-04-06T11:35:31.422Z,7.25
2019-04-06T11:38:24.217Z,7.12
2019-04-06T11:41:23.994Z,6.47
2019-04-06T11:44:24.303Z,6.65
2019-04-06T11:47:14.318Z,6.20
2019-04-06T11:50:14.434Z,5.83
2019-04-06T11:53:17.138Z,5.92
2019-04-06T11:56:18.586Z,5.80
2019-04-06T11:59:17.218Z,5.47
2019-04-06T12:02:17.393Z,5.78
2019-04-06T12:05:06.461Z,5.78
2019-04-06T12:08:00.345Z,6.10
2019-04-06T12:11:00.759Z,7.10
2019-04-06T12:13:49.950Z,5.97
2019-04-06T12:16:49.740Z,5.60
2019-04-06T12:19:37.866Z,5.72
2019-04-06T12:22:37.313Z,6.65
2019-04-06T12:25:37.043Z,6.78
2019-04-06T12:28:27.712Z,6.17
2019-04-06T12:31:15.198Z,5.90
2019-04-06T12:34:16.290Z,5.10
2019-04-06T12:37:15.919Z,5.70
2019-04-06T12:40:15.419Z,6.10
2019-04-06T12:43:07.541Z,6.10
2019-04-06T12:46:07.991Z,5.83
2019-04-06T12:49:12.296Z,6.15
2019-04-06T12:52:03.837Z,6.62
2019-04-06T12:54:56.616Z,6.33
2019-04-06T12:58:02.542Z,5.58
2019-04-06T13:01:02.053Z,5.70
2019-04-06T13:03:54.476Z,6.12
2019-04-06T13:06:54.462Z,6.22
2019-04-06T13:09:53.929Z,6.60
2019-04-06T13:12:51.161Z,7.00
2019-04-06T13:15:46.889Z,6.80
2019-04-06T13:18:44.242Z,7.45
2019-04-06T13:21:40.247Z,7.42
2019-04-06T13:24:41.766Z,7.47
2019-04-06T13:27:41.275Z,7.03
2019-04-06T13:30:34.376Z,6.80
2019-04-06T13:33:34.692Z,6.12
2019-04-06T13:36:34.721Z,6.35
2019-04-06T13:39:40.910Z,6.42
2019-04-06T13:42:40.379Z,6.40
2019-04-06T13:45:40.064Z,6.65
2019-04-06T13:48:41.154Z,6.72
2019-04-06T13:51:29.911Z,7.28
2019-04-06T13:54:29.954Z,6.83
2019-04-06T13:57:30.185Z,6.92
2019-04-06T14:00:19.939Z,7.00
2019-04-06T14:03:20.226Z,7.47
2019-04-06T14:06:18.688Z,7.05
2019-04-06T14:09:26.672Z,6.33
2019-04-06T14:12:34.051Z,6.90
2019-04-06T14:15:41.188Z,7.55
2019-04-06T14:18:48.385Z,7.03
2019-04-06T14:21:55.787Z,6.85
2019-04-06T14:25:02.962Z,6.80
2019-04-06T14:28:10.045Z,7.35
2019-04-06T14:31:27.293Z,6.70
2019-04-06T14:34:26.262Z,6.65
2019-04-06T14:37:33.350Z,6.55
2019-04-06T14:40:40.430Z,7.15
2019-04-06T14:43:47.722Z,6.42
2019-04-06T14:47:03.486Z,6.55
2019-04-06T14:50:03.606Z,6.97
2019-04-06T14:53:09.705Z,6.83
2019-04-06T14:56:09.202Z,6.37
2019-04-06T14:59:06.121Z,6.25
2019-04-06T15:02:15.069Z,6.37
2019-04-06T15:05:08.172Z,6.25
2019-04-06T15:07:57.958Z,6.33
2019-04-06T15:10:51.009Z,6.70
2019-04-06T15:13:40.885Z,6.65
2019-04-06T15:16:37.882Z,6.20
2019-04-06T15:19:45.024Z,6.90
2019-04-06T15:22:42.477Z,8.85
2019-04-06T15:25:49.570Z,6.30
2019-04-06T15:28:56.668Z,7.62
2019-04-06T15:31:55.537Z,6.72
2019-04-06T15:34:50.942Z,9.83
2019-04-06T15:37:58.013Z,7.03
2019-04-06T15:41:05.188Z,6.20
2019-04-06T15:44:12.316Z,6.65
2019-04-06T15:47:19.439Z,7.47
2019-04-06T15:50:15.103Z,7.17
2019-04-06T15:53:22.171Z,7.47
2019-04-06T15:56:29.339Z,7.55
2019-04-06T15:59:36.510Z,7.42
2019-04-06T16:02:43.590Z,7.62
2019-04-06T16:05:50.949Z,7.58
2019-04-06T16:08:54.176Z,6.92
2019-04-06T16:11:55.066Z,6.97
2019-04-06T16:14:58.330Z,7.55
2019-04-06T16:18:01.351Z,7.42
2019-04-06T16:20:58.938Z,7.28
2019-04-06T16:24:04.653Z,6.72
2019-04-06T16:27:03.536Z,8.08
2019-04-06T16:30:02.993Z,6.83
2019-04-06T16:33:02.765Z,7.37
2019-04-06T16:36:02.437Z,7.12
2019-04-06T16:39:09.547Z,8.30
2019-04-06T16:42:17.049Z,7.83
2019-04-06T16:45:24.358Z,7.53
2019-04-06T16:48:31.569Z,7.28
2019-04-06T16:51:38.782Z,8.60
2019-04-06T16:54:42.386Z,7.78
2019-04-06T16:57:49.996Z,6.22
2019-04-06T17:00:57.172Z,6.33
2019-04-06T17:03:45.672Z,5.92
2019-04-06T17:06:33.746Z,6.33
2019-04-06T17:09:35.002Z,8.25
2019-04-06T17:12:38.233Z,10.95
2019-04-06T17:15:38.036Z,6.62
2019-04-06T17:18:37.667Z,7.15
2019-04-06T17:21:29.135Z,5.92
2019-04-06T17:24:24.422Z,9.05
2019-04-06T17:30:11.120Z,8.10
2019-04-06T17:33:03.265Z,6.45
2019-04-06T17:36:03.550Z,7.47
2019-04-06T17:39:03.791Z,6.37
2019-04-06T17:42:01.182Z,6.87
2019-04-06T17:45:01.431Z,6.87
2019-04-06T17:48:01.236Z,5.47
2019-04-06T17:50:52.020Z,22.40
2019-04-06T17:53:52.094Z,14.87
2019-04-06T17:56:58.054Z,8.50
2019-04-06T17:59:58.896Z,5.35
2019-04-06T18:02:58.677Z,29.23
2019-04-06T18:09:22.142Z,4.90
2019-04-06T18:12:21.573Z,5.28
2019-04-06T18:15:02.331Z,4.67
2019-04-06T18:17:31.341Z,4.75
2019-04-06T18:20:19.665Z,4.03
2019-04-06T18:23:09.590Z,4.03
2019-04-06T18:25:58.970Z,4.83
2019-04-06T18:28:47.112Z,4.60
2019-04-06T18:31:54.206Z,4.90
2019-04-06T18:34:42.325Z,6.05
2019-04-06T18:40:38.397Z,5.75
2019-04-06T18:43:26.449Z,6.37
2019-04-06T18:46:15.912Z,5.65
2019-04-06T18:49:04.424Z,6.10
2019-04-06T18:51:52.737Z,5.43
2019-04-06T18:54:40.785Z,5.90
2019-04-06T18:57:29.193Z,6.17
2019-04-06T19:00:17.593Z,4.80
2019-04-06T19:03:14.212Z,6.37
2019-04-06T19:05:49.884Z,11.10
2019-04-06T19:08:30.867Z,7.50
2019-04-06T19:11:00.041Z,6.37
2019-04-06T19:13:49.885Z,6.00
2019-04-06T19:16:39.277Z,7.13
2019-04-06T19:19:27.365Z,5.97
2019-04-06T19:22:15.481Z,5.60
2019-04-06T19:25:03.773Z,5.03
2019-04-06T19:27:51.930Z,4.83
2019-04-06T19:30:40.078Z,11.63
2019-04-06T19:33:30.537Z,8.30
2019-04-06T19:36:20.401Z,14.10
2019-04-06T19:39:30.777Z,11.53
2019-04-06T19:42:20.465Z,11.23
2019-04-06T19:45:10.441Z,8.50
2019-04-06T19:47:58.709Z,7.60
2019-04-06T19:50:46.866Z,9.90
2019-04-06T19:53:35.173Z,8.50
2019-04-06T19:56:23.342Z,10.07
2019-04-06T19:59:12.957Z,11.93
2019-04-06T20:02:01.281Z,10.57
2019-04-06T20:04:49.335Z,18.07
2019-04-06T20:07:29.989Z,32.63
2019-04-06T20:10:11.076Z,16.00
2019-04-06T20:16:14.093Z,30.40
2019-04-06T20:18:55.465Z,70.80
2019-04-06T20:21:36.181Z,38.30
2019-04-06T20:24:17.136Z,79.33
2019-04-06T20:26:58.868Z,47.83
2019-04-06T20:29:40.077Z,62.00
2019-04-06T20:32:21.593Z,40.07
2019-04-06T20:35:02.434Z,11.97
2019-04-06T20:37:43.366Z,8.83
2019-04-06T20:40:24.270Z,6.73
2019-04-06T20:43:05.446Z,6.10
2019-04-06T20:45:46.684Z,5.13
2019-04-06T20:48:27.314Z,6.13
2019-04-06T20:51:08.054Z,5.23
2019-04-06T20:53:48.794Z,4.57
2019-04-06T20:56:28.295Z,5.13
2019-04-06T20:59:16.766Z,4.93
2019-04-06T21:02:06.144Z,4.30
2019-04-06T21:04:54.422Z,4.00
2019-04-06T21:07:35.334Z,3.93
2019-04-06T21:10:16.439Z,3.57
2019-04-06T21:12:57.877Z,3.50
2019-04-06T21:15:39.528Z,3.73
2019-04-06T21:18:20.987Z,4.37
2019-04-06T21:21:01.301Z,3.67
2019-04-06T21:23:42.197Z,3.90
2019-04-06T21:26:22.595Z,4.57
2019-04-06T21:29:03.674Z,4.10
2019-04-06T21:31:44.751Z,4.13
2019-04-06T21:34:26.035Z,4.30
2019-04-06T21:37:07.147Z,4.40
2019-04-06T21:39:48.305Z,4.03
2019-04-06T21:42:29.610Z,4.70
2019-04-06T21:45:11.092Z,3.83
2019-04-06T21:47:51.521Z,3.47
2019-04-06T21:50:32.207Z,4.07
2019-04-06T21:53:12.886Z,3.67
2019-04-06T21:56:02.156Z,3.90
2019-04-06T21:58:36.475Z,3.80
2019-04-06T22:01:17.341Z,3.73
2019-04-06T22:03:58.629Z,3.33
2019-04-06T22:06:39.309Z,3.50
2019-04-06T22:09:19.907Z,3.10
2019-04-06T22:12:00.795Z,3.33
2019-04-06T22:14:41.670Z,3.47
2019-04-06T22:17:22.454Z,2.80
2019-04-06T22:20:03.180Z,3.23
2019-04-06T22:22:43.850Z,3.30
2019-04-06T22:25:24.499Z,2.60
2019-04-06T22:28:05.206Z,2.63
2019-04-06T22:30:45.977Z,3.30
2019-04-06T22:33:26.649Z,3.07
2019-04-06T22:36:07.703Z,2.53
2019-04-06T22:38:49.183Z,2.50
2019-04-06T22:41:31.062Z,2.00
2019-04-06T22:44:12.015Z,2.37
2019-04-06T22:46:53.086Z,2.90
2019-04-06T22:49:32.202Z,2.23
2019-04-06T22:52:20.535Z,2.53
2019-04-06T22:55:10.194Z,2.20
2019-04-06T22:57:58.494Z,2.70
2019-04-06T23:04:03.101Z,2.20
2019-04-06T23:09:40.526Z,2.17
2019-04-06T23:12:22.159Z,2.10
2019-04-06T23:15:02.674Z,2.70
2019-04-06T23:17:42.325Z,2.00
2019-04-06T23:20:30.358Z,2.37
2019-04-06T23:23:18.478Z,2.00
2019-04-06T23:26:06.626Z,2.60
2019-04-06T23:28:55.028Z,2.33
2019-04-06T23:31:43.164Z,2.43
2019-04-06T23:34:31.297Z,2.10
2019-04-06T23:37:19.633Z,2.30
2019-04-06T23:40:07.731Z,2.53
2019-04-06T23:42:55.901Z,2.27
2019-04-06T23:45:45.845Z,2.30
2019-04-06T23:48:33.880Z,2.33
2019-04-06T23:51:22.186Z,2.30
2019-04-06T23:54:10.486Z,2.30
2019-04-06T23:56:59.163Z,2.10
2019-04-06T23:59:48.879Z,2.10
